sensor_id;sensor_type;location;lat;lon;timestamp;temperature;humidity
65972;SHT31;52726;48.852;9.152;2023-06-04T00:02:24;14.25;68.04
65972;SHT31;52726;48.852;9.152;2023-06-04T00:04:49;14.20;67.82
65972;SHT31;52726;48.852;9.152;2023-06-04T00:07:15;14.17;67.89
65972;SHT31;52726;48.852;9.152;2023-06-04T00:09:40;14.16;67.88
65972;SHT31;52726;48.852;9.152;2023-06-04T00:12:06;14.13;68.30
65972;SHT31;52726;48.852;9.152;2023-06-04T00:14:31;14.13;67.95
65972;SHT31;52726;48.852;9.152;2023-06-04T00:16:57;14.14;67.88
65972;SHT31;52726;48.852;9.152;2023-06-04T00:19:22;14.21;67.17
65972;SHT31;52726;48.852;9.152;2023-06-04T00:21:48;14.21;67.01
65972;SHT31;52726;48.852;9.152;2023-06-04T00:24:13;14.20;67.24
65972;SHT31;52726;48.852;9.152;2023-06-04T00:26:39;14.20;66.89
65972;SHT31;52726;48.852;9.152;2023-06-04T00:29:04;14.18;66.69
65972;SHT31;52726;48.852;9.152;2023-06-04T00:31:29;14.11;67.04
65972;SHT31;52726;48.852;9.152;2023-06-04T00:33:55;14.04;67.81
65972;SHT31;52726;48.852;9.152;2023-06-04T00:36:20;13.90;68.42
65972;SHT31;52726;48.852;9.152;2023-06-04T00:38:46;13.86;68.66
65972;SHT31;52726;48.852;9.152;2023-06-04T00:41:11;13.79;68.68
65972;SHT31;52726;48.852;9.152;2023-06-04T00:43:37;13.70;68.70
65972;SHT31;52726;48.852;9.152;2023-06-04T00:46:02;13.62;68.40
65972;SHT31;52726;48.852;9.152;2023-06-04T00:48:28;13.62;68.15
65972;SHT31;52726;48.852;9.152;2023-06-04T00:50:56;13.73;66.70
65972;SHT31;52726;48.852;9.152;2023-06-04T00:53:23;13.79;66.37
65972;SHT31;52726;48.852;9.152;2023-06-04T00:55:49;13.76;66.77
65972;SHT31;52726;48.852;9.152;2023-06-04T00:58:14;13.70;67.40
65972;SHT31;52726;48.852;9.152;2023-06-04T01:00:40;13.62;68.20
65972;SHT31;52726;48.852;9.152;2023-06-04T01:03:13;13.56;68.15
65972;SHT31;52726;48.852;9.152;2023-06-04T01:05:53;13.45;68.55
65972;SHT31;52726;48.852;9.152;2023-06-04T01:08:19;13.39;68.51
65972;SHT31;52726;48.852;9.152;2023-06-04T01:10:54;13.32;69.12
65972;SHT31;52726;48.852;9.152;2023-06-04T01:13:20;13.25;69.40
65972;SHT31;52726;48.852;9.152;2023-06-04T01:15:46;13.18;69.52
65972;SHT31;52726;48.852;9.152;2023-06-04T01:18:15;13.11;69.81
65972;SHT31;52726;48.852;9.152;2023-06-04T01:20:57;13.00;69.74
65972;SHT31;52726;48.852;9.152;2023-06-04T01:23:46;12.89;70.28
65972;SHT31;52726;48.852;9.152;2023-06-04T01:26:12;12.91;70.28
65972;SHT31;52726;48.852;9.152;2023-06-04T01:28:39;12.87;69.99
65972;SHT31;52726;48.852;9.152;2023-06-04T01:31:05;12.87;69.67
65972;SHT31;52726;48.852;9.152;2023-06-04T01:33:33;12.87;69.79
65972;SHT31;52726;48.852;9.152;2023-06-04T01:35:59;12.91;69.34
65972;SHT31;52726;48.852;9.152;2023-06-04T01:38:25;12.86;69.59
65972;SHT31;52726;48.852;9.152;2023-06-04T01:40:50;12.81;69.88
65972;SHT31;52726;48.852;9.152;2023-06-04T01:43:18;12.83;69.11
65972;SHT31;52726;48.852;9.152;2023-06-04T01:45:43;12.77;68.90
65972;SHT31;52726;48.852;9.152;2023-06-04T01:48:09;12.76;68.72
65972;SHT31;52726;48.852;9.152;2023-06-04T01:50:34;12.76;68.84
65972;SHT31;52726;48.852;9.152;2023-06-04T01:53:00;12.72;69.40
65972;SHT31;52726;48.852;9.152;2023-06-04T01:55:25;12.69;69.72
65972;SHT31;52726;48.852;9.152;2023-06-04T01:57:51;12.64;69.35
65972;SHT31;52726;48.852;9.152;2023-06-04T02:00:17;12.59;69.10
65972;SHT31;52726;48.852;9.152;2023-06-04T02:02:45;12.59;70.00
65972;SHT31;52726;48.852;9.152;2023-06-04T02:05:13;12.56;70.45
65972;SHT31;52726;48.852;9.152;2023-06-04T02:07:41;12.53;70.10
65972;SHT31;52726;48.852;9.152;2023-06-04T02:10:08;12.48;69.53
65972;SHT31;52726;48.852;9.152;2023-06-04T02:12:36;12.45;69.28
65972;SHT31;52726;48.852;9.152;2023-06-04T02:15:01;12.42;68.93
65972;SHT31;52726;48.852;9.152;2023-06-04T02:17:27;12.39;69.13
65972;SHT31;52726;48.852;9.152;2023-06-04T02:19:53;12.36;69.00
65972;SHT31;52726;48.852;9.152;2023-06-04T02:22:20;12.32;69.71
65972;SHT31;52726;48.852;9.152;2023-06-04T02:24:46;12.32;68.77
65972;SHT31;52726;48.852;9.152;2023-06-04T02:27:13;12.35;69.14
65972;SHT31;52726;48.852;9.152;2023-06-04T02:29:39;12.35;68.20
65972;SHT31;52726;48.852;9.152;2023-06-04T02:32:05;12.32;69.18
65972;SHT31;52726;48.852;9.152;2023-06-04T02:34:31;12.24;69.29
65972;SHT31;52726;48.852;9.152;2023-06-04T02:36:57;12.20;68.73
65972;SHT31;52726;48.852;9.152;2023-06-04T02:39:23;12.17;68.55
65972;SHT31;52726;48.852;9.152;2023-06-04T02:41:49;12.15;69.11
65972;SHT31;52726;48.852;9.152;2023-06-04T02:44:14;12.10;69.12
65972;SHT31;52726;48.852;9.152;2023-06-04T02:46:39;12.02;69.05
65972;SHT31;52726;48.852;9.152;2023-06-04T02:49:05;12.01;69.44
65972;SHT31;52726;48.852;9.152;2023-06-04T02:51:30;11.94;69.64
65972;SHT31;52726;48.852;9.152;2023-06-04T02:53:56;11.90;69.79
65972;SHT31;52726;48.852;9.152;2023-06-04T02:56:21;11.91;69.85
65972;SHT31;52726;48.852;9.152;2023-06-04T02:58:54;11.84;70.10
65972;SHT31;52726;48.852;9.152;2023-06-04T03:01:25;11.80;70.96
65972;SHT31;52726;48.852;9.152;2023-06-04T03:03:52;11.76;71.07
65972;SHT31;52726;48.852;9.152;2023-06-04T03:06:19;11.77;71.00
65972;SHT31;52726;48.852;9.152;2023-06-04T03:08:47;11.70;71.63
65972;SHT31;52726;48.852;9.152;2023-06-04T03:11:13;11.66;71.97
65972;SHT31;52726;48.852;9.152;2023-06-04T03:13:38;11.63;71.96
65972;SHT31;52726;48.852;9.152;2023-06-04T03:16:04;11.62;72.19
65972;SHT31;52726;48.852;9.152;2023-06-04T03:18:37;11.66;71.73
65972;SHT31;52726;48.852;9.152;2023-06-04T03:21:04;11.60;72.30
65972;SHT31;52726;48.852;9.152;2023-06-04T03:23:30;11.55;72.70
65972;SHT31;52726;48.852;9.152;2023-06-04T03:25:55;11.49;72.69
65972;SHT31;52726;48.852;9.152;2023-06-04T03:28:21;11.44;73.19
65972;SHT31;52726;48.852;9.152;2023-06-04T03:30:46;11.36;73.22
65972;SHT31;52726;48.852;9.152;2023-06-04T03:33:11;11.20;73.75
65972;SHT31;52726;48.852;9.152;2023-06-04T03:35:37;11.16;73.96
65972;SHT31;52726;48.852;9.152;2023-06-04T03:38:02;11.19;73.82
65972;SHT31;52726;48.852;9.152;2023-06-04T03:40:27;11.23;73.80
65972;SHT31;52726;48.852;9.152;2023-06-04T03:42:53;11.20;74.38
65972;SHT31;52726;48.852;9.152;2023-06-04T03:45:18;11.20;74.29
65972;SHT31;52726;48.852;9.152;2023-06-04T03:47:43;11.25;73.78
65972;SHT31;52726;48.852;9.152;2023-06-04T03:50:10;11.28;73.60
65972;SHT31;52726;48.852;9.152;2023-06-04T03:52:35;11.29;73.50
65972;SHT31;52726;48.852;9.152;2023-06-04T03:55:01;11.37;73.20
65972;SHT31;52726;48.852;9.152;2023-06-04T03:57:26;11.40;72.79
65972;SHT31;52726;48.852;9.152;2023-06-04T03:59:52;11.47;73.61
65972;SHT31;52726;48.852;9.152;2023-06-04T04:02:17;11.52;72.72
65972;SHT31;52726;48.852;9.152;2023-06-04T04:04:44;11.56;72.68
65972;SHT31;52726;48.852;9.152;2023-06-04T04:07:09;11.57;72.97
65972;SHT31;52726;48.852;9.152;2023-06-04T04:09:35;11.52;73.19
65972;SHT31;52726;48.852;9.152;2023-06-04T04:12:01;11.52;73.29
65972;SHT31;52726;48.852;9.152;2023-06-04T04:14:26;11.49;73.64
65972;SHT31;52726;48.852;9.152;2023-06-04T04:16:51;11.53;73.04
65972;SHT31;52726;48.852;9.152;2023-06-04T04:19:17;11.60;72.86
65972;SHT31;52726;48.852;9.152;2023-06-04T04:21:42;11.64;72.74
65972;SHT31;52726;48.852;9.152;2023-06-04T04:24:08;11.70;72.03
65972;SHT31;52726;48.852;9.152;2023-06-04T04:26:33;11.76;72.56
65972;SHT31;52726;48.852;9.152;2023-06-04T04:28:59;11.78;72.34
65972;SHT31;52726;48.852;9.152;2023-06-04T04:31:29;11.85;71.90
65972;SHT31;52726;48.852;9.152;2023-06-04T04:33:55;11.91;72.48
65972;SHT31;52726;48.852;9.152;2023-06-04T04:36:21;11.98;72.17
65972;SHT31;52726;48.852;9.152;2023-06-04T04:38:46;12.01;71.55
65972;SHT31;52726;48.852;9.152;2023-06-04T04:41:19;12.05;70.46
65972;SHT31;52726;48.852;9.152;2023-06-04T04:43:46;12.14;68.94
65972;SHT31;52726;48.852;9.152;2023-06-04T04:46:11;12.22;69.10
65972;SHT31;52726;48.852;9.152;2023-06-04T04:48:36;12.25;69.10
65972;SHT31;52726;48.852;9.152;2023-06-04T04:51:03;12.31;68.33
65972;SHT31;52726;48.852;9.152;2023-06-04T04:53:29;12.41;67.87
65972;SHT31;52726;48.852;9.152;2023-06-04T04:55:54;12.42;68.04
65972;SHT31;52726;48.852;9.152;2023-06-04T04:58:20;12.53;68.03
65972;SHT31;52726;48.852;9.152;2023-06-04T05:00:45;12.53;67.72
65972;SHT31;52726;48.852;9.152;2023-06-04T05:03:12;12.56;67.88
65972;SHT31;52726;48.852;9.152;2023-06-04T05:05:38;12.62;68.07
65972;SHT31;52726;48.852;9.152;2023-06-04T05:08:03;12.69;68.92
65972;SHT31;52726;48.852;9.152;2023-06-04T05:10:29;12.73;67.75
65972;SHT31;52726;48.852;9.152;2023-06-04T05:12:58;12.79;67.88
65972;SHT31;52726;48.852;9.152;2023-06-04T05:15:25;12.89;68.46
65972;SHT31;52726;48.852;9.152;2023-06-04T05:17:51;12.94;68.61
65972;SHT31;52726;48.852;9.152;2023-06-04T05:20:21;13.01;68.15
65972;SHT31;52726;48.852;9.152;2023-06-04T05:22:47;13.07;68.09
65972;SHT31;52726;48.852;9.152;2023-06-04T05:25:13;13.18;66.53
65972;SHT31;52726;48.852;9.152;2023-06-04T05:27:39;13.32;65.37
65972;SHT31;52726;48.852;9.152;2023-06-04T05:30:05;13.48;64.83
65972;SHT31;52726;48.852;9.152;2023-06-04T05:32:31;13.52;64.86
65972;SHT31;52726;48.852;9.152;2023-06-04T05:34:58;13.56;62.80
65972;SHT31;52726;48.852;9.152;2023-06-04T05:37:25;13.75;61.68
65972;SHT31;52726;48.852;9.152;2023-06-04T05:39:57;13.91;60.78
65972;SHT31;52726;48.852;9.152;2023-06-04T05:42:23;13.97;60.28
65972;SHT31;52726;48.852;9.152;2023-06-04T05:44:49;14.07;61.38
65972;SHT31;52726;48.852;9.152;2023-06-04T05:47:15;14.14;62.12
65972;SHT31;52726;48.852;9.152;2023-06-04T05:49:44;14.23;60.58
65972;SHT31;52726;48.852;9.152;2023-06-04T05:52:09;14.31;60.10
65972;SHT31;52726;48.852;9.152;2023-06-04T05:54:35;14.37;59.29
65972;SHT31;52726;48.852;9.152;2023-06-04T05:57:02;14.42;60.27
65972;SHT31;52726;48.852;9.152;2023-06-04T05:59:27;14.52;58.78
65972;SHT31;52726;48.852;9.152;2023-06-04T06:01:53;14.67;58.44
65972;SHT31;52726;48.852;9.152;2023-06-04T06:04:18;14.69;58.55
65972;SHT31;52726;48.852;9.152;2023-06-04T06:06:43;14.90;58.65
65972;SHT31;52726;48.852;9.152;2023-06-04T06:09:12;15.06;59.02
65972;SHT31;52726;48.852;9.152;2023-06-04T06:11:37;15.26;57.03
65972;SHT31;52726;48.852;9.152;2023-06-04T06:14:03;15.48;56.61
65972;SHT31;52726;48.852;9.152;2023-06-04T06:16:28;15.62;55.18
65972;SHT31;52726;48.852;9.152;2023-06-04T06:18:54;15.77;54.64
65972;SHT31;52726;48.852;9.152;2023-06-04T06:21:19;16.13;54.18
65972;SHT31;52726;48.852;9.152;2023-06-04T06:23:45;16.44;53.33
65972;SHT31;52726;48.852;9.152;2023-06-04T06:26:10;16.74;51.05
65972;SHT31;52726;48.852;9.152;2023-06-04T06:28:36;16.99;52.32
65972;SHT31;52726;48.852;9.152;2023-06-04T06:31:01;17.50;50.10
65972;SHT31;52726;48.852;9.152;2023-06-04T06:33:27;18.42;49.46
65972;SHT31;52726;48.852;9.152;2023-06-04T06:35:53;19.08;44.75
65972;SHT31;52726;48.852;9.152;2023-06-04T06:38:18;19.86;43.68
65972;SHT31;52726;48.852;9.152;2023-06-04T06:40:43;20.14;42.91
65972;SHT31;52726;48.852;9.152;2023-06-04T06:43:09;20.41;44.14
65972;SHT31;52726;48.852;9.152;2023-06-04T06:45:35;21.03;43.10
65972;SHT31;52726;48.852;9.152;2023-06-04T06:48:01;21.34;42.25
65972;SHT31;52726;48.852;9.152;2023-06-04T06:50:26;21.52;39.61
65972;SHT31;52726;48.852;9.152;2023-06-04T06:52:52;21.68;40.20
65972;SHT31;52726;48.852;9.152;2023-06-04T06:55:17;21.40;39.28
65972;SHT31;52726;48.852;9.152;2023-06-04T06:57:43;21.57;39.24
65972;SHT31;52726;48.852;9.152;2023-06-04T07:00:09;21.74;41.00
65972;SHT31;52726;48.852;9.152;2023-06-04T07:02:34;21.50;39.80
65972;SHT31;52726;48.852;9.152;2023-06-04T07:04:59;21.99;41.63
65972;SHT31;52726;48.852;9.152;2023-06-04T07:07:28;22.60;38.68
65972;SHT31;52726;48.852;9.152;2023-06-04T07:09:53;22.71;40.42
65972;SHT31;52726;48.852;9.152;2023-06-04T07:12:18;23.01;37.93
65972;SHT31;52726;48.852;9.152;2023-06-04T07:14:44;22.69;40.21
65972;SHT31;52726;48.852;9.152;2023-06-04T07:17:10;22.96;38.62
65972;SHT31;52726;48.852;9.152;2023-06-04T07:19:35;21.77;41.16
65972;SHT31;52726;48.852;9.152;2023-06-04T07:22:01;21.15;43.99
65972;SHT31;52726;48.852;9.152;2023-06-04T07:24:26;20.96;43.28
65972;SHT31;52726;48.852;9.152;2023-06-04T07:26:52;21.50;43.41
65972;SHT31;52726;48.852;9.152;2023-06-04T07:29:17;21.21;43.26
65972;SHT31;52726;48.852;9.152;2023-06-04T07:31:42;20.90;44.56
65972;SHT31;52726;48.852;9.152;2023-06-04T07:34:08;20.61;43.97
65972;SHT31;52726;48.852;9.152;2023-06-04T07:36:33;20.64;44.90
65972;SHT31;52726;48.852;9.152;2023-06-04T07:38:59;20.65;44.36
65972;SHT31;52726;48.852;9.152;2023-06-04T07:41:25;20.58;46.23
65972;SHT31;52726;48.852;9.152;2023-06-04T07:43:51;20.77;45.56
65972;SHT31;52726;48.852;9.152;2023-06-04T07:46:17;20.80;44.40
65972;SHT31;52726;48.852;9.152;2023-06-04T07:48:44;20.69;46.75
65972;SHT31;52726;48.852;9.152;2023-06-04T07:51:10;21.68;42.84
65972;SHT31;52726;48.852;9.152;2023-06-04T07:53:36;21.69;42.20
65972;SHT31;52726;48.852;9.152;2023-06-04T07:56:03;21.19;43.12
65972;SHT31;52726;48.852;9.152;2023-06-04T07:58:28;21.15;45.51
65972;SHT31;52726;48.852;9.152;2023-06-04T08:00:54;20.80;45.41
65972;SHT31;52726;48.852;9.152;2023-06-04T08:03:19;20.76;45.78
65972;SHT31;52726;48.852;9.152;2023-06-04T08:05:45;21.69;43.19
65972;SHT31;52726;48.852;9.152;2023-06-04T08:08:11;22.24;42.23
65972;SHT31;52726;48.852;9.152;2023-06-04T08:10:36;22.68;42.03
65972;SHT31;52726;48.852;9.152;2023-06-04T08:13:02;23.09;39.99
65972;SHT31;52726;48.852;9.152;2023-06-04T08:15:27;23.18;42.23
65972;SHT31;52726;48.852;9.152;2023-06-04T08:17:52;22.75;41.75
65972;SHT31;52726;48.852;9.152;2023-06-04T08:20:18;23.19;41.66
65972;SHT31;52726;48.852;9.152;2023-06-04T08:22:43;23.42;40.20
65972;SHT31;52726;48.852;9.152;2023-06-04T08:25:09;23.61;41.11
65972;SHT31;52726;48.852;9.152;2023-06-04T08:27:35;23.43;40.90
65972;SHT31;52726;48.852;9.152;2023-06-04T08:30:00;23.13;41.18
65972;SHT31;52726;48.852;9.152;2023-06-04T08:32:27;23.57;40.64
65972;SHT31;52726;48.852;9.152;2023-06-04T08:34:52;23.45;41.34
65972;SHT31;52726;48.852;9.152;2023-06-04T08:37:17;23.45;41.41
65972;SHT31;52726;48.852;9.152;2023-06-04T08:39:43;24.15;39.25
65972;SHT31;52726;48.852;9.152;2023-06-04T08:42:24;24.28;39.70
65972;SHT31;52726;48.852;9.152;2023-06-04T08:44:51;24.49;39.59
65972;SHT31;52726;48.852;9.152;2023-06-04T08:47:19;24.26;38.92
65972;SHT31;52726;48.852;9.152;2023-06-04T08:49:48;24.25;39.96
65972;SHT31;52726;48.852;9.152;2023-06-04T08:52:14;24.26;39.92
65972;SHT31;52726;48.852;9.152;2023-06-04T08:54:40;23.78;39.54
65972;SHT31;52726;48.852;9.152;2023-06-04T08:57:06;23.45;40.01
65972;SHT31;52726;48.852;9.152;2023-06-04T08:59:32;23.78;40.57
65972;SHT31;52726;48.852;9.152;2023-06-04T09:01:58;24.42;40.09
65972;SHT31;52726;48.852;9.152;2023-06-04T09:04:24;24.53;39.76
65972;SHT31;52726;48.852;9.152;2023-06-04T09:06:49;24.35;40.99
65972;SHT31;52726;48.852;9.152;2023-06-04T09:09:16;24.67;40.06
65972;SHT31;52726;48.852;9.152;2023-06-04T09:11:50;24.04;39.29
65972;SHT31;52726;48.852;9.152;2023-06-04T09:14:16;24.18;40.11
65972;SHT31;52726;48.852;9.152;2023-06-04T09:16:51;24.39;38.67
65972;SHT31;52726;48.852;9.152;2023-06-04T09:19:18;24.53;40.72
65972;SHT31;52726;48.852;9.152;2023-06-04T09:21:57;25.00;37.78
65972;SHT31;52726;48.852;9.152;2023-06-04T09:24:24;24.94;37.11
65972;SHT31;52726;48.852;9.152;2023-06-04T09:26:51;25.03;39.03
65972;SHT31;52726;48.852;9.152;2023-06-04T09:29:18;24.53;39.44
65972;SHT31;52726;48.852;9.152;2023-06-04T09:31:56;25.01;37.66
65972;SHT31;52726;48.852;9.152;2023-06-04T09:34:28;25.04;39.10
65972;SHT31;52726;48.852;9.152;2023-06-04T09:36:54;25.11;36.46
65972;SHT31;52726;48.852;9.152;2023-06-04T09:39:19;25.00;37.74
65972;SHT31;52726;48.852;9.152;2023-06-04T09:42:02;25.32;36.55
65972;SHT31;52726;48.852;9.152;2023-06-04T09:44:42;24.64;36.90
65972;SHT31;52726;48.852;9.152;2023-06-04T09:47:08;24.37;37.33
65972;SHT31;52726;48.852;9.152;2023-06-04T09:49:46;24.84;37.61
65972;SHT31;52726;48.852;9.152;2023-06-04T09:52:13;25.27;36.99
65972;SHT31;52726;48.852;9.152;2023-06-04T09:54:40;25.50;36.55
65972;SHT31;52726;48.852;9.152;2023-06-04T09:57:16;25.93;35.92
65972;SHT31;52726;48.852;9.152;2023-06-04T09:59:43;25.86;34.94
65972;SHT31;52726;48.852;9.152;2023-06-04T10:02:11;25.93;38.30
65972;SHT31;52726;48.852;9.152;2023-06-04T10:04:40;25.86;36.50
65972;SHT31;52726;48.852;9.152;2023-06-04T10:07:07;26.53;35.71
65972;SHT31;52726;48.852;9.152;2023-06-04T10:09:34;27.02;35.00
65972;SHT31;52726;48.852;9.152;2023-06-04T10:12:00;26.47;34.43
65972;SHT31;52726;48.852;9.152;2023-06-04T10:14:41;26.34;34.42
65972;SHT31;52726;48.852;9.152;2023-06-04T10:17:08;26.31;35.65
65972;SHT31;52726;48.852;9.152;2023-06-04T10:19:38;26.07;36.47
65972;SHT31;52726;48.852;9.152;2023-06-04T10:22:04;26.35;35.03
65972;SHT31;52726;48.852;9.152;2023-06-04T10:24:30;26.42;34.71
65972;SHT31;52726;48.852;9.152;2023-06-04T10:26:58;26.28;34.12
65972;SHT31;52726;48.852;9.152;2023-06-04T10:29:25;26.41;33.56
65972;SHT31;52726;48.852;9.152;2023-06-04T10:31:54;26.27;36.47
65972;SHT31;52726;48.852;9.152;2023-06-04T10:34:20;26.71;33.43
65972;SHT31;52726;48.852;9.152;2023-06-04T10:36:45;26.98;33.11
65972;SHT31;52726;48.852;9.152;2023-06-04T10:39:11;26.95;32.89
65972;SHT31;52726;48.852;9.152;2023-06-04T10:41:37;26.79;32.61
65972;SHT31;52726;48.852;9.152;2023-06-04T10:44:02;27.11;32.74
65972;SHT31;52726;48.852;9.152;2023-06-04T10:46:38;27.57;32.21
65972;SHT31;52726;48.852;9.152;2023-06-04T10:49:05;27.65;32.74
65972;SHT31;52726;48.852;9.152;2023-06-04T10:51:32;27.17;35.82
65972;SHT31;52726;48.852;9.152;2023-06-04T10:53:58;26.88;34.53
65972;SHT31;52726;48.852;9.152;2023-06-04T10:56:27;27.04;34.53
65972;SHT31;52726;48.852;9.152;2023-06-04T10:58:53;27.16;33.83
65972;SHT31;52726;48.852;9.152;2023-06-04T11:01:28;27.30;33.05
65972;SHT31;52726;48.852;9.152;2023-06-04T11:03:54;27.14;31.86
65972;SHT31;52726;48.852;9.152;2023-06-04T11:06:21;27.43;31.53
65972;SHT31;52726;48.852;9.152;2023-06-04T11:08:47;27.33;31.79
65972;SHT31;52726;48.852;9.152;2023-06-04T11:11:14;27.18;32.83
65972;SHT31;52726;48.852;9.152;2023-06-04T11:13:40;27.18;31.89
65972;SHT31;52726;48.852;9.152;2023-06-04T11:16:20;26.93;33.66
65972;SHT31;52726;48.852;9.152;2023-06-04T11:18:55;26.58;34.91
65972;SHT31;52726;48.852;9.152;2023-06-04T11:21:22;26.73;34.99
65972;SHT31;52726;48.852;9.152;2023-06-04T11:23:47;26.25;33.25
65972;SHT31;52726;48.852;9.152;2023-06-04T11:26:13;25.96;33.94
65972;SHT31;52726;48.852;9.152;2023-06-04T11:28:39;26.25;35.48
65972;SHT31;52726;48.852;9.152;2023-06-04T11:31:05;26.34;34.56
65972;SHT31;52726;48.852;9.152;2023-06-04T11:33:47;26.80;31.61
65972;SHT31;52726;48.852;9.152;2023-06-04T11:36:26;26.61;33.03
65972;SHT31;52726;48.852;9.152;2023-06-04T11:38:59;26.79;31.92
65972;SHT31;52726;48.852;9.152;2023-06-04T11:41:31;26.55;32.49
65972;SHT31;52726;48.852;9.152;2023-06-04T11:44:01;26.58;34.53
65972;SHT31;52726;48.852;9.152;2023-06-04T11:46:26;26.17;34.66
65972;SHT31;52726;48.852;9.152;2023-06-04T11:48:52;26.58;35.16
65972;SHT31;52726;48.852;9.152;2023-06-04T11:51:20;26.75;31.72
65972;SHT31;52726;48.852;9.152;2023-06-04T11:53:46;26.72;33.41
65972;SHT31;52726;48.852;9.152;2023-06-04T11:56:12;26.32;33.11
65972;SHT31;52726;48.852;9.152;2023-06-04T11:58:38;26.51;32.83
65972;SHT31;52726;48.852;9.152;2023-06-04T12:01:05;26.49;32.78
65972;SHT31;52726;48.852;9.152;2023-06-04T12:03:42;26.38;32.62
65972;SHT31;52726;48.852;9.152;2023-06-04T12:06:16;26.73;35.06
65972;SHT31;52726;48.852;9.152;2023-06-04T12:08:47;26.75;33.49
65972;SHT31;52726;48.852;9.152;2023-06-04T12:13:57;26.63;31.86
65972;SHT31;52726;48.852;9.152;2023-06-04T12:16:23;26.75;31.23
65972;SHT31;52726;48.852;9.152;2023-06-04T12:18:48;26.58;36.56
65972;SHT31;52726;48.852;9.152;2023-06-04T12:21:22;26.62;32.52
65972;SHT31;52726;48.852;9.152;2023-06-04T12:23:53;26.79;31.29
65972;SHT31;52726;48.852;9.152;2023-06-04T12:26:22;26.86;31.56
65972;SHT31;52726;48.852;9.152;2023-06-04T12:29:10;27.14;30.93
65972;SHT31;52726;48.852;9.152;2023-06-04T12:31:36;27.10;33.05
65972;SHT31;52726;48.852;9.152;2023-06-04T12:34:02;26.90;31.53
65972;SHT31;52726;48.852;9.152;2023-06-04T12:36:27;26.78;31.73
65972;SHT31;52726;48.852;9.152;2023-06-04T12:38:58;26.85;32.99
65972;SHT31;52726;48.852;9.152;2023-06-04T12:41:24;26.52;32.55
65972;SHT31;52726;48.852;9.152;2023-06-04T12:43:50;26.41;33.20
65972;SHT31;52726;48.852;9.152;2023-06-04T12:46:16;26.51;32.92
65972;SHT31;52726;48.852;9.152;2023-06-04T13:01:29;26.14;34.02
65972;SHT31;52726;48.852;9.152;2023-06-04T13:03:55;26.56;35.97
65972;SHT31;52726;48.852;9.152;2023-06-04T13:06:20;26.37;34.39
65972;SHT31;52726;48.852;9.152;2023-06-04T13:08:46;26.44;34.26
65972;SHT31;52726;48.852;9.152;2023-06-04T13:11:11;26.51;33.62
65972;SHT31;52726;48.852;9.152;2023-06-04T13:13:37;26.58;33.83
65972;SHT31;52726;48.852;9.152;2023-06-04T13:16:03;26.59;33.20
65972;SHT31;52726;48.852;9.152;2023-06-04T13:18:29;26.24;34.59
65972;SHT31;52726;48.852;9.152;2023-06-04T13:20:55;26.18;34.01
65972;SHT31;52726;48.852;9.152;2023-06-04T13:23:20;26.79;34.72
65972;SHT31;52726;48.852;9.152;2023-06-04T13:25:45;26.95;33.39
65972;SHT31;52726;48.852;9.152;2023-06-04T13:28:18;26.75;32.89
65972;SHT31;52726;48.852;9.152;2023-06-04T13:30:43;26.55;32.40
65972;SHT31;52726;48.852;9.152;2023-06-04T13:33:09;26.89;35.63
65972;SHT31;52726;48.852;9.152;2023-06-04T13:35:35;26.99;33.22
65972;SHT31;52726;48.852;9.152;2023-06-04T13:38:04;27.00;33.84
65972;SHT31;52726;48.852;9.152;2023-06-04T13:40:42;26.89;33.58
65972;SHT31;52726;48.852;9.152;2023-06-04T13:43:08;26.99;35.10
65972;SHT31;52726;48.852;9.152;2023-06-04T13:45:34;26.98;33.38
65972;SHT31;52726;48.852;9.152;2023-06-04T13:47:59;26.90;32.49
65972;SHT31;52726;48.852;9.152;2023-06-04T13:50:31;26.95;30.10
65972;SHT31;52726;48.852;9.152;2023-06-04T13:52:57;26.89;29.91
65972;SHT31;52726;48.852;9.152;2023-06-04T13:55:22;26.13;29.83
65972;SHT31;52726;48.852;9.152;2023-06-04T13:57:47;25.83;32.69
65972;SHT31;52726;48.852;9.152;2023-06-04T14:00:13;26.44;34.29
65972;SHT31;52726;48.852;9.152;2023-06-04T14:02:39;26.49;33.10
65972;SHT31;52726;48.852;9.152;2023-06-04T14:05:05;26.65;33.69
65972;SHT31;52726;48.852;9.152;2023-06-04T14:07:31;26.20;30.51
65972;SHT31;52726;48.852;9.152;2023-06-04T14:09:56;26.35;33.89
65972;SHT31;52726;48.852;9.152;2023-06-04T14:12:22;26.75;33.23
65972;SHT31;52726;48.852;9.152;2023-06-04T14:14:48;26.56;31.99
65972;SHT31;52726;48.852;9.152;2023-06-04T14:17:13;26.31;30.18
65972;SHT31;52726;48.852;9.152;2023-06-04T14:19:39;25.97;31.86
65972;SHT31;52726;48.852;9.152;2023-06-04T14:22:05;25.53;33.35
65972;SHT31;52726;48.852;9.152;2023-06-04T14:24:30;25.12;33.28
65972;SHT31;52726;48.852;9.152;2023-06-04T14:26:56;25.27;34.32
65972;SHT31;52726;48.852;9.152;2023-06-04T14:29:21;25.25;31.29
65972;SHT31;52726;48.852;9.152;2023-06-04T14:31:47;25.62;30.31
65972;SHT31;52726;48.852;9.152;2023-06-04T14:34:12;25.73;31.47
65972;SHT31;52726;48.852;9.152;2023-06-04T14:36:37;25.82;34.23
65972;SHT31;52726;48.852;9.152;2023-06-04T14:39:03;25.76;33.45
65972;SHT31;52726;48.852;9.152;2023-06-04T14:41:28;25.49;31.40
65972;SHT31;52726;48.852;9.152;2023-06-04T14:43:54;25.61;30.89
65972;SHT31;52726;48.852;9.152;2023-06-04T14:46:19;25.83;33.87
65972;SHT31;52726;48.852;9.152;2023-06-04T14:48:44;25.98;32.89
65972;SHT31;52726;48.852;9.152;2023-06-04T14:51:10;26.21;33.37
65972;SHT31;52726;48.852;9.152;2023-06-04T14:53:35;25.93;31.71
65972;SHT31;52726;48.852;9.152;2023-06-04T14:56:04;25.65;33.18
65972;SHT31;52726;48.852;9.152;2023-06-04T14:58:29;25.97;32.93
65972;SHT31;52726;48.852;9.152;2023-06-04T15:00:55;25.73;33.17
65972;SHT31;52726;48.852;9.152;2023-06-04T15:03:23;26.03;31.26
65972;SHT31;52726;48.852;9.152;2023-06-04T15:05:49;25.79;31.23
65972;SHT31;52726;48.852;9.152;2023-06-04T15:08:14;25.70;32.06
65972;SHT31;52726;48.852;9.152;2023-06-04T15:10:40;25.58;32.73
65972;SHT31;52726;48.852;9.152;2023-06-04T15:13:05;25.87;30.11
65972;SHT31;52726;48.852;9.152;2023-06-04T15:15:30;26.00;30.74
65972;SHT31;52726;48.852;9.152;2023-06-04T15:17:56;25.97;29.62
65972;SHT31;52726;48.852;9.152;2023-06-04T15:20:21;26.07;32.69
65972;SHT31;52726;48.852;9.152;2023-06-04T15:22:50;26.32;32.37
65972;SHT31;52726;48.852;9.152;2023-06-04T15:25:16;26.03;31.43
65972;SHT31;52726;48.852;9.152;2023-06-04T15:27:41;25.89;29.43
65972;SHT31;52726;48.852;9.152;2023-06-04T15:30:07;25.89;30.13
65972;SHT31;52726;48.852;9.152;2023-06-04T15:32:32;25.94;29.31
65972;SHT31;52726;48.852;9.152;2023-06-04T15:34:59;25.82;30.05
65972;SHT31;52726;48.852;9.152;2023-06-04T15:37:25;25.76;28.93
65972;SHT31;52726;48.852;9.152;2023-06-04T15:39:50;25.87;31.37
65972;SHT31;52726;48.852;9.152;2023-06-04T15:42:22;26.05;33.37
65972;SHT31;52726;48.852;9.152;2023-06-04T15:44:47;26.23;31.75